Time;durP1;ratioP1;P1;durP2;ratioP2;P2;SDS_P1;SDS_P2;PMS_P1;PMS_P2;Temp;Humidity;BMP_temperature;BMP_pressure;BME280_temperature;BME280_humidity;BME280_pressure;Samples;Min_cycle;Max_cycle;Signal;HPM_P1;HPM_P2
2024/01/04 00:01:55;;;;;;;6.15;2.05;;;;;;;;;;4926997;28;101378;-79
2024/01/04 00:04:22;;;;;;;6.57;2.40;;;;;;;;;;4917260;28;98369;-80
2024/01/04 00:06:48;;;;;;;4.55;1.70;;;;;;;;;;4932778;28;99332;-80
2024/01/04 00:09:15;;;;;;;6.13;1.98;;;;;;;;;;4918281;28;99126;-81
2024/01/04 00:11:42;;;;;;;4.80;1.80;;;;;;;;;;4049453;28;10001498;-82
2024/01/04 00:14:09;;;;;;;5.88;2.10;;;;;;;;;;4039536;28;10000369;-78
2024/01/04 00:16:36;;;;;;;7.18;2.05;;;;;;;;;;4931518;28;98271;-81
2024/01/04 00:19:03;;;;;;;7.13;2.15;;;;;;;;;;4935474;28;98306;-80
2024/01/04 00:21:29;;;;;;;6.05;2.00;;;;;;;;;;4935810;28;98462;-80
2024/01/04 00:23:57;;;;;;;6.13;1.80;;;;;;;;;;4936385;28;105085;-81
2024/01/04 00:26:24;;;;;;;5.85;1.80;;;;;;;;;;4936443;28;99102;-81
2024/01/04 00:28:51;;;;;;;6.53;1.83;;;;;;;;;;4937180;28;98702;-81
2024/01/04 00:31:17;;;;;;;6.97;1.85;;;;;;;;;;4913438;28;101610;-81
2024/01/04 00:33:55;;;;;;;7.27;1.88;;;;;;;;;;4409423;28;10001749;-81
2024/01/04 00:36:22;;;;;;;5.75;1.80;;;;;;;;;;4047271;28;10000821;-81
2024/01/04 00:38:48;;;;;;;4.90;1.88;;;;;;;;;;4929510;28;100502;-80
2024/01/04 00:41:16;;;;;;;6.03;1.90;;;;;;;;;;4916430;28;101493;-80
2024/01/04 00:43:43;;;;;;;4.20;1.63;;;;;;;;;;4915482;28;98600;-82
2024/01/04 00:46:10;;;;;;;6.03;1.70;;;;;;;;;;4911828;28;100635;-83
2024/01/04 00:48:37;;;;;;;4.57;1.80;;;;;;;;;;4917136;28;102805;-82
2024/01/04 00:51:04;;;;;;;5.72;1.80;;;;;;;;;;4935238;28;98296;-82
2024/01/04 00:53:30;;;;;;;5.38;1.70;;;;;;;;;;4924839;28;99872;-81
2024/01/04 00:55:57;;;;;;;4.18;1.48;;;;;;;;;;4916444;28;102125;-81
2024/01/04 00:58:23;;;;;;;5.90;1.60;;;;;;;;;;4923879;28;98786;-81
2024/01/04 01:00:50;;;;;;;4.43;1.50;;;;;;;;;;4905807;28;99165;-81
2024/01/04 01:03:19;;;;;;;4.15;1.58;;;;;;;;;;2893467;28;10001128;-81
2024/01/04 01:05:46;;;;;;;5.03;1.50;;;;;;;;;;4404110;28;10000349;-81
2024/01/04 01:08:12;;;;;;;4.85;1.55;;;;;;;;;;4913365;28;99265;-81
2024/01/04 01:10:39;;;;;;;3.85;1.58;;;;;;;;;;4917564;28;99372;-81
2024/01/04 01:13:06;;;;;;;4.97;1.55;;;;;;;;;;4916181;28;105841;-81
2024/01/04 01:15:33;;;;;;;3.42;1.27;;;;;;;;;;4931793;28;98601;-81
2024/01/04 01:18:00;;;;;;;5.07;1.50;;;;;;;;;;4918284;28;98446;-80
2024/01/04 01:20:27;;;;;;;6.28;1.50;;;;;;;;;;4906960;28;101641;-81
2024/01/04 01:22:54;;;;;;;3.78;1.50;;;;;;;;;;4928286;28;101739;-80
2024/01/04 01:25:21;;;;;;;4.07;1.33;;;;;;;;;;4943911;28;99166;-81
2024/01/04 01:27:48;;;;;;;4.85;1.40;;;;;;;;;;4929983;28;98339;-80
2024/01/04 01:30:14;;;;;;;4.18;1.30;;;;;;;;;;4946223;28;101028;-80
2024/01/04 01:32:41;;;;;;;4.15;1.30;;;;;;;;;;4903019;28;101530;-79
2024/01/04 01:35:08;;;;;;;4.55;1.20;;;;;;;;;;4931032;28;98497;-81
2024/01/04 01:37:35;;;;;;;4.53;1.55;;;;;;;;;;4916699;28;100706;-82
2024/01/04 01:40:02;;;;;;;5.55;1.40;;;;;;;;;;4913963;28;99307;-82
2024/01/04 01:42:29;;;;;;;5.38;1.33;;;;;;;;;;4924439;28;98399;-81
2024/01/04 01:44:55;;;;;;;4.28;1.23;;;;;;;;;;4930955;28;102179;-82
2024/01/04 01:47:24;;;;;;;4.18;1.25;;;;;;;;;;4918361;28;98385;-82
2024/01/04 01:49:50;;;;;;;6.05;1.45;;;;;;;;;;4909181;28;99167;-84
2024/01/04 01:52:17;;;;;;;3.58;1.20;;;;;;;;;;4916789;28;99251;-82
2024/01/04 01:54:46;;;;;;;2.78;1.20;;;;;;;;;;4915312;28;98385;-83
2024/01/04 01:57:13;;;;;;;2.97;1.10;;;;;;;;;;4898939;28;99373;-83
2024/01/04 01:59:39;;;;;;;4.15;1.38;;;;;;;;;;4906934;28;101973;-84
2024/01/04 02:02:07;;;;;;;8.50;1.50;;;;;;;;;;4919480;28;97541;-84
2024/01/04 02:04:33;;;;;;;4.40;1.20;;;;;;;;;;4923864;28;101276;-82
2024/01/04 02:07:00;;;;;;;4.88;1.30;;;;;;;;;;4915931;28;98162;-81
2024/01/04 02:09:28;;;;;;;4.28;1.30;;;;;;;;;;4915943;28;99857;-83
2024/01/04 02:12:09;;;;;;;3.00;1.20;;;;;;;;;;4917805;28;98652;-83
2024/01/04 02:14:36;;;;;;;5.60;1.27;;;;;;;;;;4928973;28;98450;-81
2024/01/04 02:17:03;;;;;;;3.83;1.20;;;;;;;;;;4936149;28;98426;-81
2024/01/04 02:19:30;;;;;;;3.60;1.20;;;;;;;;;;4933859;28;101059;-81
2024/01/04 02:21:57;;;;;;;3.63;1.13;;;;;;;;;;4918869;28;98245;-82
2024/01/04 02:24:24;;;;;;;4.60;1.30;;;;;;;;;;4920581;28;100012;-80
2024/01/04 02:26:51;;;;;;;3.58;1.20;;;;;;;;;;4934545;28;98095;-81
2024/01/04 02:29:17;;;;;;;5.10;1.05;;;;;;;;;;4936827;28;98479;-81
2024/01/04 02:31:45;;;;;;;2.40;1.05;;;;;;;;;;4935412;28;99110;-81
2024/01/04 02:34:12;;;;;;;3.78;1.15;;;;;;;;;;4936429;28;99347;-82
2024/01/04 02:36:38;;;;;;;2.08;0.93;;;;;;;;;;4932373;28;99859;-81
2024/01/04 02:39:05;;;;;;;6.43;1.30;;;;;;;;;;4931042;28;100033;-80
2024/01/04 02:41:32;;;;;;;3.53;1.20;;;;;;;;;;4919682;28;98334;-82
2024/01/04 02:43:58;;;;;;;3.35;1.30;;;;;;;;;;4939090;28;98554;-83
2024/01/04 02:46:25;;;;;;;2.75;1.00;;;;;;;;;;4940659;28;99619;-82
2024/01/04 02:48:52;;;;;;;9.05;1.55;;;;;;;;;;4939968;28;98784;-82
2024/01/04 02:51:19;;;;;;;5.45;1.20;;;;;;;;;;4938720;28;100559;-82
2024/01/04 02:53:45;;;;;;;4.70;1.20;;;;;;;;;;4926239;28;98286;-82
2024/01/04 02:56:12;;;;;;;5.05;1.48;;;;;;;;;;4920613;28;98589;-82
2024/01/04 02:58:39;;;;;;;5.05;1.30;;;;;;;;;;4903420;28;102152;-82
2024/01/04 03:01:05;;;;;;;7.50;1.25;;;;;;;;;;4918888;28;98420;-82
2024/01/04 03:03:32;;;;;;;4.18;1.55;;;;;;;;;;4921656;28;98533;-84
2024/01/04 03:05:58;;;;;;;4.57;1.23;;;;;;;;;;4919920;28;99455;-82
2024/01/04 03:08:25;;;;;;;3.63;1.08;;;;;;;;;;4921931;28;98306;-80
2024/01/04 03:10:51;;;;;;;3.05;1.10;;;;;;;;;;4918788;28;101054;-81
2024/01/04 03:13:18;;;;;;;4.47;1.40;;;;;;;;;;4918955;28;98487;-82
2024/01/04 03:15:44;;;;;;;3.47;1.17;;;;;;;;;;4931906;28;101200;-82
2024/01/04 03:18:11;;;;;;;5.65;1.33;;;;;;;;;;4937972;28;101790;-82
2024/01/04 03:20:38;;;;;;;3.35;1.20;;;;;;;;;;4908664;28;98440;-81
2024/01/04 03:23:04;;;;;;;4.53;1.30;;;;;;;;;;4899742;28;98841;-82
2024/01/04 03:25:31;;;;;;;4.78;1.10;;;;;;;;;;4900090;28;98873;-81
2024/01/04 03:27:57;;;;;;;4.18;1.20;;;;;;;;;;4933355;28;98675;-82
2024/01/04 03:30:24;;;;;;;3.90;1.20;;;;;;;;;;4940700;28;98805;-81
2024/01/04 03:32:50;;;;;;;5.55;1.20;;;;;;;;;;4922165;28;99038;-81
2024/01/04 03:35:17;;;;;;;4.65;1.20;;;;;;;;;;4934379;28;98379;-82
2024/01/04 03:37:44;;;;;;;4.40;1.10;;;;;;;;;;4938089;28;99964;-83
2024/01/04 03:40:10;;;;;;;3.38;1.00;;;;;;;;;;4939601;28;97431;-82
2024/01/04 03:42:37;;;;;;;3.40;1.10;;;;;;;;;;4919041;28;102238;-83
2024/01/04 03:45:04;;;;;;;5.18;1.20;;;;;;;;;;4905230;28;101510;-83
2024/01/04 03:47:30;;;;;;;11.18;1.60;;;;;;;;;;4918319;28;99118;-82
2024/01/04 03:49:59;;;;;;;11.15;1.30;;;;;;;;;;4939293;28;100210;-82
2024/01/04 03:52:26;;;;;;;6.47;1.33;;;;;;;;;;4940185;28;101022;-83
2024/01/04 03:54:52;;;;;;;5.20;1.20;;;;;;;;;;4937684;28;98509;-82
2024/01/04 03:57:19;;;;;;;5.45;1.20;;;;;;;;;;4937975;28;101023;-82
2024/01/04 03:59:46;;;;;;;3.80;1.00;;;;;;;;;;4939166;28;98421;-82
2024/01/04 04:02:12;;;;;;;7.95;1.40;;;;;;;;;;4936916;28;100753;-83
2024/01/04 04:04:39;;;;;;;5.10;1.30;;;;;;;;;;4921899;28;100917;-83
2024/01/04 04:07:05;;;;;;;2.95;1.02;;;;;;;;;;4937204;28;98503;-84
2024/01/04 04:09:32;;;;;;;4.80;1.00;;;;;;;;;;4934724;28;101619;-82
2024/01/04 04:11:59;;;;;;;5.38;1.10;;;;;;;;;;4920957;28;100777;-82
2024/01/04 04:14:25;;;;;;;3.72;1.10;;;;;;;;;;4918727;28;99478;-82
2024/01/04 04:16:52;;;;;;;4.63;1.15;;;;;;;;;;4927294;28;98852;-82
2024/01/04 04:19:18;;;;;;;3.00;1.00;;;;;;;;;;4921555;28;98349;-82
2024/01/04 04:21:45;;;;;;;5.43;1.30;;;;;;;;;;4938885;28;98789;-82
2024/01/04 04:24:12;;;;;;;5.78;1.02;;;;;;;;;;4938537;28;99190;-80
2024/01/04 04:26:38;;;;;;;4.10;1.00;;;;;;;;;;4938584;28;98311;-81
2024/01/04 04:29:05;;;;;;;3.03;1.00;;;;;;;;;;4939305;28;99006;-81
2024/01/04 04:31:31;;;;;;;3.40;1.20;;;;;;;;;;4927911;28;98899;-82
2024/01/04 04:33:58;;;;;;;5.72;1.00;;;;;;;;;;4923257;28;98097;-83
2024/01/04 04:36:25;;;;;;;3.40;1.10;;;;;;;;;;4926257;28;101695;-82
2024/01/04 04:38:51;;;;;;;6.13;1.15;;;;;;;;;;4937855;28;98614;-80
2024/01/04 04:41:18;;;;;;;8.15;1.30;;;;;;;;;;4937103;28;101019;-80
2024/01/04 04:43:45;;;;;;;3.85;1.30;;;;;;;;;;4936887;28;98912;-81
2024/01/04 04:46:12;;;;;;;3.33;1.10;;;;;;;;;;4936828;28;98774;-81
2024/01/04 04:48:38;;;;;;;5.43;1.17;;;;;;;;;;4938803;28;98949;-81
2024/01/04 04:51:05;;;;;;;6.93;1.33;;;;;;;;;;4937680;28;99045;-83
2024/01/04 04:53:32;;;;;;;4.65;1.15;;;;;;;;;;4937969;28;97642;-81
2024/01/04 04:55:59;;;;;;;3.60;1.00;;;;;;;;;;4939971;28;100029;-81
2024/01/04 04:58:25;;;;;;;3.35;0.93;;;;;;;;;;4936162;28;99020;-80
2024/01/04 05:00:52;;;;;;;3.30;1.08;;;;;;;;;;4936803;28;99316;-81
2024/01/04 05:03:18;;;;;;;3.55;1.00;;;;;;;;;;4917200;28;101971;-81
2024/01/04 05:05:45;;;;;;;3.05;1.02;;;;;;;;;;4926023;28;98324;-81
2024/01/04 05:08:12;;;;;;;4.22;1.10;;;;;;;;;;4936908;28;98612;-82
2024/01/04 05:10:38;;;;;;;1.55;0.90;;;;;;;;;;4937280;28;99220;-81
2024/01/04 05:13:05;;;;;;;1.80;0.90;;;;;;;;;;4920519;28;98409;-81
2024/01/04 05:15:32;;;;;;;3.67;1.10;;;;;;;;;;4921111;28;98488;-82
2024/01/04 05:17:59;;;;;;;5.00;1.20;;;;;;;;;;4940705;28;97836;-80
2024/01/04 05:20:26;;;;;;;3.08;0.90;;;;;;;;;;4935468;28;98363;-81
2024/01/04 05:22:52;;;;;;;3.08;0.90;;;;;;;;;;4938218;28;98607;-81
2024/01/04 05:25:19;;;;;;;4.18;1.00;;;;;;;;;;4935817;28;99008;-82
2024/01/04 05:27:45;;;;;;;5.68;1.20;;;;;;;;;;4935673;28;99251;-81
2024/01/04 05:30:12;;;;;;;2.47;0.90;;;;;;;;;;4937366;28;99428;-81
2024/01/04 05:32:39;;;;;;;3.03;0.98;;;;;;;;;;4936925;28;98122;-80
2024/01/04 05:35:06;;;;;;;3.65;1.00;;;;;;;;;;4937343;28;98603;-84
2024/01/04 05:37:33;;;;;;;2.42;1.15;;;;;;;;;;4933030;28;101180;-82
2024/01/04 05:39:59;;;;;;;3.38;0.90;;;;;;;;;;4939055;28;98345;-81
2024/01/04 05:42:27;;;;;;;1.83;0.90;;;;;;;;;;4937700;28;98111;-80
2024/01/04 05:44:53;;;;;;;2.75;0.90;;;;;;;;;;4936012;28;98572;-81
2024/01/04 05:47:20;;;;;;;3.13;0.90;;;;;;;;;;4937980;28;98472;-81
2024/01/04 05:49:47;;;;;;;3.28;0.80;;;;;;;;;;4923347;28;99438;-82
2024/01/04 05:52:13;;;;;;;3.20;0.90;;;;;;;;;;4934072;28;98356;-82
2024/01/04 05:54:40;;;;;;;2.38;0.80;;;;;;;;;;4937431;28;98857;-83
2024/01/04 05:57:07;;;;;;;4.10;0.90;;;;;;;;;;4937421;28;99316;-82
2024/01/04 05:59:34;;;;;;;1.80;0.73;;;;;;;;;;4936186;28;98651;-82
2024/01/04 06:02:00;;;;;;;2.83;0.80;;;;;;;;;;4938840;28;98385;-81
2024/01/04 06:04:27;;;;;;;3.75;0.82;;;;;;;;;;4919125;28;98135;-81
2024/01/04 06:06:54;;;;;;;1.58;0.70;;;;;;;;;;4917059;28;100605;-82
2024/01/04 06:09:21;;;;;;;3.50;0.80;;;;;;;;;;4916149;28;101267;-82
2024/01/04 06:11:50;;;;;;;4.25;1.00;;;;;;;;;;4917484;28;98840;-82
2024/01/04 06:14:17;;;;;;;2.63;0.80;;;;;;;;;;4918086;28;99332;-81
2024/01/04 06:16:44;;;;;;;3.65;1.00;;;;;;;;;;4917885;28;98798;-83
2024/01/04 06:19:11;;;;;;;4.50;1.00;;;;;;;;;;4904004;28;98528;-81
2024/01/04 06:21:38;;;;;;;5.88;1.00;;;;;;;;;;4923248;28;99649;-82
2024/01/04 06:24:04;;;;;;;2.38;0.90;;;;;;;;;;4921413;28;98321;-82
2024/01/04 06:26:31;;;;;;;1.45;0.90;;;;;;;;;;4936796;28;98713;-81
2024/01/04 06:28:58;;;;;;;2.10;0.70;;;;;;;;;;4940797;28;99102;-82
2024/01/04 06:31:24;;;;;;;2.65;0.90;;;;;;;;;;4940206;28;97755;-82
2024/01/04 06:33:51;;;;;;;3.15;0.88;;;;;;;;;;4941194;28;98448;-83
2024/01/04 06:36:18;;;;;;;4.05;0.90;;;;;;;;;;4907007;28;101137;-83
2024/01/04 06:38:44;;;;;;;2.45;0.90;;;;;;;;;;4940995;28;98947;-82
2024/01/04 06:41:12;;;;;;;3.97;0.80;;;;;;;;;;4939157;28;101916;-82
2024/01/04 06:43:38;;;;;;;2.95;1.00;;;;;;;;;;4944119;28;99007;-82
2024/01/04 06:46:05;;;;;;;4.35;0.82;;;;;;;;;;4939382;28;98483;-82
2024/01/04 06:48:31;;;;;;;1.83;0.80;;;;;;;;;;4937884;28;99422;-82
2024/01/04 06:50:58;;;;;;;2.88;0.88;;;;;;;;;;4938526;28;98671;-81
2024/01/04 06:53:25;;;;;;;4.47;0.85;;;;;;;;;;4941020;28;98670;-82
2024/01/04 06:55:51;;;;;;;2.25;0.80;;;;;;;;;;4940625;28;99144;-82
2024/01/04 06:58:18;;;;;;;1.83;0.70;;;;;;;;;;4938331;28;98683;-82
2024/01/04 07:00:44;;;;;;;5.68;1.00;;;;;;;;;;4940448;28;98780;-83
2024/01/04 07:03:11;;;;;;;4.38;0.88;;;;;;;;;;4938398;28;102128;-83
2024/01/04 07:05:38;;;;;;;3.30;0.75;;;;;;;;;;4942996;28;98221;-83
2024/01/04 07:08:05;;;;;;;2.88;0.85;;;;;;;;;;4923606;28;101431;-81
2024/01/04 07:10:31;;;;;;;5.80;0.90;;;;;;;;;;4938407;28;98551;-82
2024/01/04 07:12:58;;;;;;;2.90;0.95;;;;;;;;;;4917325;28;100773;-83
2024/01/04 07:15:24;;;;;;;4.55;1.00;;;;;;;;;;4919676;28;99344;-84
2024/01/04 07:17:52;;;;;;;3.13;0.80;;;;;;;;;;4920864;28;98402;-84
2024/01/04 07:20:19;;;;;;;;;;;;;;;;;;4920961;28;99102;-84
2024/01/04 07:22:52;;;;;;;1.23;0.52;;;;;;;;;;4921495;28;117522;-83
2024/01/04 07:25:19;;;;;;;2.10;0.73;;;;;;;;;;4932420;28;98724;-82
2024/01/04 07:27:45;;;;;;;3.58;0.95;;;;;;;;;;4900815;28;99369;-83
2024/01/04 07:30:15;;;;;;;1.90;0.73;;;;;;;;;;4930249;28;98164;-86
2024/01/04 07:32:42;;;;;;;1.55;0.68;;;;;;;;;;4917644;28;100583;-84
2024/01/04 07:35:12;;;;;;;3.33;0.70;;;;;;;;;;4918227;28;98838;-84
2024/01/04 07:37:43;;;;;;;1.85;0.80;;;;;;;;;;4920762;28;99072;-84
2024/01/04 07:40:10;;;;;;;3.13;0.90;;;;;;;;;;4918986;28;98488;-83
2024/01/04 07:42:37;;;;;;;3.83;0.70;;;;;;;;;;4936493;28;103631;-83
2024/01/04 07:45:04;;;;;;;2.33;0.73;;;;;;;;;;4914003;28;98840;-83
2024/01/04 07:47:33;;;;;;;2.25;0.70;;;;;;;;;;4919915;28;100668;-84
2024/01/04 07:49:59;;;;;;;5.95;0.75;;;;;;;;;;4924006;28;98862;-83
2024/01/04 07:52:26;;;;;;;3.53;0.55;;;;;;;;;;4937447;28;100938;-82
2024/01/04 07:54:52;;;;;;;3.40;0.70;;;;;;;;;;4937924;28;101284;-83
2024/01/04 07:57:19;;;;;;;6.72;0.80;;;;;;;;;;4939197;28;98213;-82
2024/01/04 07:59:46;;;;;;;2.22;0.80;;;;;;;;;;4939785;28;99010;-83
2024/01/04 08:02:13;;;;;;;2.47;0.73;;;;;;;;;;4939264;28;99185;-83
2024/01/04 08:04:39;;;;;;;2.70;0.70;;;;;;;;;;4939977;28;98180;-84
2024/01/04 08:07:07;;;;;;;2.38;0.65;;;;;;;;;;4939780;28;98436;-82
2024/01/04 08:09:34;;;;;;;2.08;0.70;;;;;;;;;;4938794;28;98345;-82
2024/01/04 08:12:05;;;;;;;5.45;0.90;;;;;;;;;;4940350;28;98191;-82
2024/01/04 08:14:33;;;;;;;1.58;0.70;;;;;;;;;;4935904;28;100862;-81
2024/01/04 08:17:00;;;;;;;2.13;0.73;;;;;;;;;;4932618;28;99026;-83
2024/01/04 08:19:26;;;;;;;2.65;0.70;;;;;;;;;;4918915;28;99475;-82
2024/01/04 08:21:53;;;;;;;1.90;0.60;;;;;;;;;;4915625;28;101201;-82
2024/01/04 08:24:20;;;;;;;2.13;0.77;;;;;;;;;;4937892;28;98732;-82
2024/01/04 08:26:47;;;;;;;5.63;0.90;;;;;;;;;;4937804;28;98957;-82
2024/01/04 08:29:13;;;;;;;2.72;0.70;;;;;;;;;;4953650;28;100032;-82
2024/01/04 08:36:46;;;;;;;1.88;0.70;;;;;;;;;;5030136;27;87999;-81
2024/01/04 08:39:13;;;;;;;2.17;0.70;;;;;;;;;;4982673;28;86197;-81
2024/01/04 08:41:43;;;;;;;2.83;0.90;;;;;;;;;;4975697;28;88366;-82
2024/01/04 08:44:10;;;;;;;2.05;0.70;;;;;;;;;;5004036;28;86778;-81
2024/01/04 08:46:37;;;;;;;3.22;0.70;;;;;;;;;;4979241;28;93596;-82
2024/01/04 08:49:04;;;;;;;8.48;1.20;;;;;;;;;;4987936;28;86513;-82
2024/01/04 08:51:33;;;;;;;4.78;1.05;;;;;;;;;;5001551;28;86558;-79
2024/01/04 08:54:00;;;;;;;3.08;1.00;;;;;;;;;;4999731;28;86945;-81
2024/01/04 08:56:26;;;;;;;2.78;0.90;;;;;;;;;;4984994;28;94238;-80
2024/01/04 08:58:53;;;;;;;2.85;1.00;;;;;;;;;;4999388;28;89776;-83
2024/01/04 09:01:19;;;;;;;3.60;0.85;;;;;;;;;;5000049;28;86501;-80
2024/01/04 09:03:48;;;;;;;4.20;0.93;;;;;;;;;;4998285;28;86883;-82
2024/01/04 09:06:16;;;;;;;1.95;0.98;;;;;;;;;;4983171;28;89873;-81
2024/01/04 09:08:42;;;;;;;3.28;0.90;;;;;;;;;;5000535;28;89003;-80
2024/01/04 09:11:10;;;;;;;6.80;0.95;;;;;;;;;;5001511;28;86958;-81
2024/01/04 09:13:36;;;;;;;1.98;0.90;;;;;;;;;;5001376;28;87015;-80
2024/01/04 09:16:03;;;;;;;2.40;0.85;;;;;;;;;;5002030;28;86700;-80
2024/01/04 09:18:29;;;;;;;5.28;1.10;;;;;;;;;;5001702;28;89201;-82
2024/01/04 09:20:56;;;;;;;2.47;1.00;;;;;;;;;;4998925;28;88837;-80
2024/01/04 09:23:23;;;;;;;3.35;0.98;;;;;;;;;;4999579;28;89710;-79
2024/01/04 09:25:49;;;;;;;4.50;1.00;;;;;;;;;;4981198;28;89350;-80
2024/01/04 09:28:18;;;;;;;3.17;1.00;;;;;;;;;;4998007;27;89029;-78
2024/01/04 09:30:45;;;;;;;4.03;0.90;;;;;;;;;;5000574;28;86783;-79
2024/01/04 09:33:13;;;;;;;3.45;1.00;;;;;;;;;;5001065;28;86832;-80
2024/01/04 09:35:41;;;;;;;2.70;1.08;;;;;;;;;;4987253;28;89380;-81
2024/01/04 09:38:08;;;;;;;3.47;1.02;;;;;;;;;;4983013;28;87159;-81
2024/01/04 09:40:35;;;;;;;3.75;0.90;;;;;;;;;;4996503;28;86942;-81
2024/01/04 09:43:03;;;;;;;1.50;0.95;;;;;;;;;;5005346;28;87291;-80
2024/01/04 09:45:30;;;;;;;2.28;0.90;;;;;;;;;;4983228;28;87495;-80
2024/01/04 09:47:59;;;;;;;2.80;0.80;;;;;;;;;;4984468;28;89720;-81
2024/01/04 09:50:26;;;;;;;5.00;0.82;;;;;;;;;;4986927;28;87604;-81
2024/01/04 09:52:56;;;;;;;;;;;;;;;;;;4987422;28;88890;-81
2024/01/04 09:55:23;;;;;;;2.30;0.80;;;;;;;;;;4988833;28;90649;-80
2024/01/04 09:57:50;;;;;;;2.65;0.90;;;;;;;;;;4986304;28;86859;-80
2024/01/04 10:00:17;;;;;;;3.47;0.93;;;;;;;;;;4985055;28;89622;-80
2024/01/04 10:02:43;;;;;;;2.25;0.95;;;;;;;;;;4989538;28;86367;-80
2024/01/04 10:05:15;;;;;;;2.15;0.70;;;;;;;;;;4971127;28;87431;-79
2024/01/04 10:07:49;;;;;;;3.10;1.00;;;;;;;;;;4952810;28;88327;-81
2024/01/04 10:10:18;;;;;;;4.30;0.93;;;;;;;;;;4982731;28;87247;-83
2024/01/04 10:12:46;;;;;;;2.90;1.00;;;;;;;;;;4984276;28;87344;-83
2024/01/04 10:15:15;;;;;;;3.25;0.90;;;;;;;;;;4985123;28;88286;-83
2024/01/04 10:17:45;;;;;;;2.58;1.00;;;;;;;;;;4969226;28;89441;-82
2024/01/04 10:20:13;;;;;;;2.25;1.00;;;;;;;;;;4986317;28;88566;-80
2024/01/04 10:22:40;;;;;;;3.40;1.25;;;;;;;;;;4986349;28;86648;-80
2024/01/04 10:25:10;;;;;;;2.60;1.10;;;;;;;;;;4986767;28;88757;-80
2024/01/04 10:27:37;;;;;;;7.43;1.13;;;;;;;;;;4983786;28;87369;-80
2024/01/04 10:30:04;;;;;;;3.17;1.00;;;;;;;;;;4985165;28;86862;-80
2024/01/04 10:32:31;;;;;;;5.00;1.20;;;;;;;;;;4985528;28;87201;-78
2024/01/04 10:35:06;;;;;;;3.08;1.10;;;;;;;;;;4978816;28;86513;-80
2024/01/04 10:37:33;;;;;;;5.25;1.05;;;;;;;;;;4982060;28;88961;-79
2024/01/04 10:40:03;;;;;;;;;;;;;;;;;;4970967;28;89073;-79
2024/01/04 10:42:30;;;;;;;5.05;1.20;;;;;;;;;;4970301;28;103855;-79
2024/01/04 10:44:58;;;;;;;5.63;1.20;;;;;;;;;;4973594;28;88075;-79
2024/01/04 10:47:25;;;;;;;3.15;1.00;;;;;;;;;;4985071;28;86580;-79
2024/01/04 10:49:56;;;;;;;2.83;1.17;;;;;;;;;;4978922;28;86838;-79
2024/01/04 10:52:26;;;;;;;4.32;0.93;;;;;;;;;;4984712;28;89305;-79
2024/01/04 10:54:54;;;;;;;3.33;1.10;;;;;;;;;;4968498;28;89314;-81
2024/01/04 10:57:21;;;;;;;3.75;1.13;;;;;;;;;;4984739;28;87219;-81
2024/01/04 10:59:48;;;;;;;3.95;1.13;;;;;;;;;;4985285;28;86851;-80
2024/01/04 11:02:15;;;;;;;3.00;0.93;;;;;;;;;;4984096;28;88679;-80
2024/01/04 11:04:42;;;;;;;4.03;1.10;;;;;;;;;;4986187;28;88720;-79
2024/01/04 11:07:09;;;;;;;;;;;;;;;;;;4988668;28;86699;-79
2024/01/04 11:09:36;;;;;;;3.53;0.90;;;;;;;;;;4985688;28;87385;-79
2024/01/04 11:12:03;;;;;;;2.63;0.95;;;;;;;;;;4983675;28;86828;-80
2024/01/04 11:14:30;;;;;;;3.20;1.00;;;;;;;;;;4963486;28;88663;-80
2024/01/04 11:17:16;;;;;;;1.75;0.80;;;;;;;;;;4979508;28;86594;-81
2024/01/04 11:20:00;;;;;;;1.15;0.85;;;;;;;;;;4982517;28;89916;-80
2024/01/04 11:22:45;;;;;;;1.95;0.98;;;;;;;;;;4983520;28;86827;-78
2024/01/04 11:25:17;;;;;;;2.47;0.90;;;;;;;;;;4984211;28;87084;-80
2024/01/04 11:27:44;;;;;;;1.55;0.73;;;;;;;;;;4985253;28;86560;-79
2024/01/04 11:30:11;;;;;;;2.15;0.90;;;;;;;;;;4987463;28;86917;-78
2024/01/04 11:32:38;;;;;;;;;;;;;;;;;;4983897;28;91242;-79
2024/01/04 11:35:05;;;;;;;1.60;0.80;;;;;;;;;;4978119;28;93268;-79
2024/01/04 11:37:32;;;;;;;2.90;0.85;;;;;;;;;;4961176;28;88814;-79
2024/01/04 11:39:58;;;;;;;;;;;;;;;;;;4975151;28;89831;-80
2024/01/04 11:42:31;;;;;;;1.95;0.85;;;;;;;;;;4984261;28;107111;-79
2024/01/04 11:44:59;;;;;;;1.55;0.82;;;;;;;;;;4983907;28;89650;-79
2024/01/04 11:47:26;;;;;;;2.88;0.77;;;;;;;;;;4967282;28;89827;-79
2024/01/04 11:49:59;;;;;;;1.90;0.90;;;;;;;;;;4967948;28;89205;-80
2024/01/04 11:52:38;;;;;;;3.15;0.93;;;;;;;;;;4988094;28;91253;-79
2024/01/04 11:55:05;;;;;;;4.82;1.10;;;;;;;;;;4983832;28;89000;-79
2024/01/04 11:57:32;;;;;;;;;;;;;;;;;;4984806;28;86812;-79
2024/01/04 11:59:59;;;;;;;2.92;0.90;;;;;;;;;;4986299;28;87215;-79
2024/01/04 12:02:26;;;;;;;2.10;1.08;;;;;;;;;;4966332;28;88638;-79
2024/01/04 12:04:52;;;;;;;5.05;1.17;;;;;;;;;;4985228;28;86830;-79
2024/01/04 12:07:19;;;;;;;1.88;0.93;;;;;;;;;;4981825;28;86408;-80
2024/01/04 12:09:55;;;;;;;4.28;1.10;;;;;;;;;;4982247;28;88712;-79
2024/01/04 12:12:21;;;;;;;2.03;0.90;;;;;;;;;;4983546;28;86571;-79
2024/01/04 12:14:48;;;;;;;5.38;0.93;;;;;;;;;;4987026;28;88294;-79
2024/01/04 12:17:15;;;;;;;2.67;0.90;;;;;;;;;;4981031;28;86857;-79
2024/01/04 12:19:41;;;;;;;3.28;1.00;;;;;;;;;;4964714;28;86993;-78
2024/01/04 12:22:08;;;;;;;4.18;1.30;;;;;;;;;;4962735;28;88192;-80
2024/01/04 12:24:37;;;;;;;3.47;1.10;;;;;;;;;;4986823;28;87797;-79
2024/01/04 12:27:05;;;;;;;3.10;0.90;;;;;;;;;;4980232;28;89099;-79
2024/01/04 12:29:31;;;;;;;1.77;0.95;;;;;;;;;;4982607;28;88222;-79
2024/01/04 12:31:58;;;;;;;3.33;1.00;;;;;;;;;;4983389;28;89391;-80
2024/01/04 12:34:25;;;;;;;1.55;0.80;;;;;;;;;;4964226;28;88225;-80
2024/01/04 12:37:02;;;;;;;3.22;0.98;;;;;;;;;;4981145;28;86679;-80
2024/01/04 12:39:31;;;;;;;1.55;0.93;;;;;;;;;;4979969;28;87519;-79
2024/01/04 12:41:58;;;;;;;2.58;0.90;;;;;;;;;;4983600;28;87640;-79
2024/01/04 12:44:25;;;;;;;2.80;1.10;;;;;;;;;;4995707;27;88192;-79
2024/01/04 12:46:51;;;;;;;3.35;1.10;;;;;;;;;;5002995;28;86972;-79
2024/01/04 12:49:18;;;;;;;2.25;1.02;;;;;;;;;;4963732;28;87674;-78
2024/01/04 12:51:50;;;;;;;2.92;1.00;;;;;;;;;;4963726;28;88940;-79
2024/01/04 12:54:17;;;;;;;2.65;1.00;;;;;;;;;;4962012;28;88588;-80
2024/01/04 12:56:43;;;;;;;3.15;0.98;;;;;;;;;;4970087;28;89026;-80
2024/01/04 12:59:12;;;;;;;3.08;1.10;;;;;;;;;;4982004;28;89836;-80
2024/01/04 13:01:39;;;;;;;3.75;1.15;;;;;;;;;;4983416;28;87883;-80
2024/01/04 13:04:07;;;;;;;3.83;1.00;;;;;;;;;;4963214;28;88359;-80
2024/01/04 13:06:34;;;;;;;2.22;1.00;;;;;;;;;;4963082;28;87674;-79
2024/01/04 13:09:00;;;;;;;1.85;0.90;;;;;;;;;;4979869;28;90096;-80
2024/01/04 13:11:27;;;;;;;3.55;1.00;;;;;;;;;;4983774;28;87872;-80
2024/01/04 13:13:54;;;;;;;2.85;1.10;;;;;;;;;;4981802;28;89430;-81
2024/01/04 13:16:20;;;;;;;2.50;1.00;;;;;;;;;;4982516;28;88598;-80
2024/01/04 13:18:47;;;;;;;2.45;1.00;;;;;;;;;;4986147;28;89685;-81
2024/01/04 13:21:14;;;;;;;2.22;1.08;;;;;;;;;;4983346;28;89068;-82
2024/01/04 13:23:41;;;;;;;3.05;1.10;;;;;;;;;;4986714;28;89041;-82
2024/01/04 13:26:08;;;;;;;3.05;1.20;;;;;;;;;;4984736;28;89445;-81
2024/01/04 13:28:36;;;;;;;4.47;1.30;;;;;;;;;;4984424;28;91016;-81
2024/01/04 13:31:03;;;;;;;3.22;1.25;;;;;;;;;;4986470;28;88199;-81
2024/01/04 13:33:30;;;;;;;3.13;1.00;;;;;;;;;;4979159;28;89345;-82
2024/01/04 13:35:56;;;;;;;2.95;1.02;;;;;;;;;;4972800;28;88368;-80
2024/01/04 13:38:23;;;;;;;4.25;1.20;;;;;;;;;;4978706;28;88460;-81
2024/01/04 13:40:49;;;;;;;3.25;1.10;;;;;;;;;;4988991;28;87854;-80
2024/01/04 13:43:16;;;;;;;3.05;1.00;;;;;;;;;;4983178;28;89088;-81
2024/01/04 13:45:43;;;;;;;2.25;0.98;;;;;;;;;;5006608;27;87688;-81
2024/01/04 13:48:09;;;;;;;3.00;0.93;;;;;;;;;;4984520;27;88458;-80
2024/01/04 13:50:36;;;;;;;2.28;1.10;;;;;;;;;;4964389;28;90851;-81
2024/01/04 13:53:06;;;;;;;3.83;1.00;;;;;;;;;;4970928;28;87741;-80
2024/01/04 13:55:32;;;;;;;2.22;1.15;;;;;;;;;;4986354;28;89132;-80
2024/01/04 13:57:59;;;;;;;1.70;0.95;;;;;;;;;;4964804;28;89919;-80
2024/01/04 14:00:26;;;;;;;2.20;1.02;;;;;;;;;;4964430;28;89307;-80
2024/01/04 14:02:52;;;;;;;1.67;0.90;;;;;;;;;;4976564;28;87844;-80
2024/01/04 14:05:19;;;;;;;2.67;0.90;;;;;;;;;;4985145;28;87865;-81
2024/01/04 14:07:45;;;;;;;2.97;1.10;;;;;;;;;;4967587;28;89407;-81
2024/01/04 14:10:12;;;;;;;2.53;1.20;;;;;;;;;;4984132;28;90451;-79
2024/01/04 14:12:40;;;;;;;2.30;1.00;;;;;;;;;;4984720;28;90005;-82
2024/01/04 14:15:08;;;;;;;2.47;1.10;;;;;;;;;;4985080;28;88813;-82
2024/01/04 14:17:38;;;;;;;2.30;1.00;;;;;;;;;;4985787;28;87689;-82
2024/01/04 14:20:07;;;;;;;2.03;1.00;;;;;;;;;;4984782;28;87744;-81
2024/01/04 14:22:35;;;;;;;2.70;0.90;;;;;;;;;;4983525;28;90769;-80
2024/01/04 14:25:02;;;;;;;2.90;1.10;;;;;;;;;;4987671;28;89283;-82
2024/01/04 14:27:29;;;;;;;1.95;0.75;;;;;;;;;;4985660;28;88313;-82
2024/01/04 14:29:55;;;;;;;1.90;0.90;;;;;;;;;;4984126;28;88341;-82
2024/01/04 14:32:22;;;;;;;1.67;0.90;;;;;;;;;;4983072;28;88490;-84
2024/01/04 14:34:49;;;;;;;1.33;0.85;;;;;;;;;;4981334;28;89107;-81
2024/01/04 14:37:17;;;;;;;1.88;0.90;;;;;;;;;;4983571;28;90929;-81
2024/01/04 14:39:44;;;;;;;3.33;0.90;;;;;;;;;;4984313;28;87887;-81
2024/01/04 14:42:11;;;;;;;1.48;0.90;;;;;;;;;;4999539;27;88141;-81
2024/01/04 14:44:40;;;;;;;1.98;1.00;;;;;;;;;;4997649;27;94554;-81
2024/01/04 14:47:07;;;;;;;1.52;0.93;;;;;;;;;;5002109;28;96292;-81
2024/01/04 14:49:37;;;;;;;2.72;1.10;;;;;;;;;;4965229;28;87957;-81